Strona główna
METAR-TAF:

METAR-TAF

Lotnisko :

Baza lotnicza

Niederstetten, Niemcy

Szerokość geograficzna: 49-24N, Długość geograficzna: 009-58E, wysokość: 468 m

Aktualna obserwacja pogody

Raport powstał 1 godzina i 19 minut temu, godzina 12:20 UTC
Wiatr 5 kt od północ
Temperatura 25°C
Wilgotność 57%
Ciśnienie 1021 hPa
Widzialność 10 km lub więcej
Mało chmury na wysokości 3700 ft

METAR: ETHN 241220Z 01005KT 9999 FEW037 25/16 Q1021 BLACKBLU+

czas: 15:39 (13:39 UTC)

Prognoza

Raport powstał 27 godziny i 46 minut temu, godzina 09:53 UTC
Prognoza ważna od 23 godzina 08 UTC do 23 godzina 17 UTC
Wiatr 7 kt od wschód
Widzialność: 1000 m
bezchmurnie

TAF: ETHN 230953Z 2308/2317 09007KT 9999 NSW SKC CANCEL 1000

Obserwacja i prognoza pogody dla ponad 4000 lotnisk (raport METAR i TAF).

Dostępne stacje oznaczono żółtymi i czerwonymi punktami na mapie.

Najedź kursorem aby zobaczyć nazwę stacji.

Kliknij aby zobaczyć obserwacje i prognozy pogody.

Aby zmienić mapę: kliknij na zielony przycisk z czarnym krzyżykiem, aby powiększyć; na zielony przycisk z myślnikiem, aby pomniejszyć; na zielone strzałki, aby przejść do map sąsiednich.


METAR-TAF: